This is the latest recevied weather packets stored in our database for station/object N7QNM-13. If no packets are shown the sender has not sent any weather packets the latest 10 day(s).
| Time | Temp. | Humidity | Pressure | Rain* | Wind** | Luminosity | Snow |
|---|---|---|---|---|---|---|---|
| 1777904420 | 14.44° C | 74% | 1008.3 hPa | 0 mm | - | 174 W/m² | - |
| 1777896622 | 9.44° C | 81% | 1007.3 hPa | 0 mm | - | 0 W/m² | - |
| 1777894822 | 10° C | 81% | 1007.6 hPa | 0 mm | - | 0 W/m² | - |
| 1777893622 | 10.56° C | 80% | 1007.6 hPa | 0 mm | - | 0 W/m² | - |
| 1777887623 | 11.67° C | 76% | 1007.7 hPa | 0 mm | - | 0 W/m² | - |
| 1777876226 | 14.44° C | 64% | 1007.8 hPa | 0 mm | - | 0 W/m² | - |
| 1777872647 | 16.67° C | 58% | 1007.8 hPa | 0 mm | - | 0 W/m² | - |
| 1777872047 | 16.67° C | 57% | 1007.8 hPa | 0 mm | - | 0 W/m² | - |
| 1777866028 | 22.22° C | 39% | 1007.1 hPa | 0 mm | - | 0 W/m² | - |
| 1777864228 | 24.44° C | 38% | 1006.9 hPa | 0 mm | - | 6 W/m² | - |
| 1777853430 | 30° C | 31% | 1008.2 hPa | 0 mm | - | 405 W/m² | - |
| 1777847451 | 30.56° C | 31% | 1009.5 hPa | 0 mm | - | 662 W/m² | - |
| 1777843232 | 30° C | 30% | 1010.4 hPa | 0 mm | - | 789 W/m² | - |
| 1777840833 | 28.33° C | 32% | 1011 hPa | 0 mm | - | 834 W/m² | - |
| 1777836634 | 27.78° C | 36% | 1011.8 hPa | 0 mm | - | 851 W/m² | - |
| 1777828236 | 23.33° C | 44% | 1013.1 hPa | 0 mm | - | 660 W/m² | - |
| 1777825836 | 21.11° C | 48% | 1013.2 hPa | 0 mm | - | 557 W/m² | - |
| 1777822836 | 20° C | 51% | 1013.4 hPa | 0 mm | - | 411 W/m² | - |
| 1777819837 | 16.67° C | 66% | 1013.5 hPa | 0 mm | - | 225 W/m² | - |
| 1777817437 | 12.78° C | 83% | 1013.3 hPa | 0 mm | - | 148 W/m² | - |
| 1777816238 | 10.56° C | 84% | 1013.2 hPa | 0 mm | - | 101 W/m² | - |
| 1777814438 | 8.89° C | 85% | 1013.1 hPa | 0 mm | - | 40 W/m² | - |
| 1777813838 | 8.33° C | 84% | 1013 hPa | 0 mm | - | 25 W/m² | - |
| 1777802440 | 11.11° C | 76% | 1012.9 hPa | 0 mm | - | 0 W/m² | - |
| 1777801840 | 11.11° C | 74% | 1012.8 hPa | 0 mm | - | 0 W/m² | - |
* Rain latest hour (hover to see other rain measurements)
** Current wind speed in m/s (hover to see current wind gust speed)